Time;durP1;ratioP1;P1;durP2;ratioP2;P2;SDS_P1;SDS_P2;PMS_P1;PMS_P2;Temp;Humidity;BMP_temperature;BMP_pressure;BME280_temperature;BME280_humidity;BME280_pressure;Samples;Min_cycle;Max_cycle;Signal;HPM_P1;HPM_P2
2022/04/16 00:00:27;;;;;;;16.00;13.98;;;8.40;99.90;;;;;;5056177;28;20051;-40
2022/04/16 00:02:54;;;;;;;19.15;14.45;;;8.40;99.90;;;;;;5081276;28;20055;-39
2022/04/16 00:05:22;;;;;;;15.85;14.02;;;8.40;99.90;;;;;;5061982;28;20095;-41
2022/04/16 00:08:06;;;;;;;17.80;14.80;;;8.40;99.90;;;;;;5079359;28;20054;-40
2022/04/16 00:10:37;;;;;;;14.88;13.38;;;8.50;99.90;;;;;;5076814;28;20493;-40
2022/04/16 00:13:03;;;;;;;17.00;13.52;;;8.40;99.90;;;;;;5064484;28;20044;-40
2022/04/16 00:15:29;;;;;;;16.95;13.25;;;8.40;99.90;;;;;;5077159;28;20051;-40
2022/04/16 00:17:55;;;;;;;15.52;13.88;;;8.40;99.90;;;;;;5079126;28;20402;-40
2022/04/16 00:20:24;;;;;;;16.60;14.27;;;8.40;99.90;;;;;;5062152;28;20055;-40
2022/04/16 00:22:54;;;;;;;14.68;12.35;;;8.40;99.90;;;;;;5079924;28;20093;-41
2022/04/16 00:25:20;;;;;;;15.85;12.25;;;8.40;99.90;;;;;;5079117;28;20044;-40
2022/04/16 00:27:49;;;;;;;16.70;13.30;;;8.40;99.90;;;;;;5079776;28;20040;-40
2022/04/16 00:30:17;;;;;;;16.00;14.02;;;8.40;99.90;;;;;;5071685;28;20044;-40
2022/04/16 00:32:44;;;;;;;19.48;13.93;;;8.30;99.90;;;;;;5062549;28;20577;-40
2022/04/16 00:35:10;;;;;;;14.65;13.00;;;8.30;99.90;;;;;;5062954;28;20052;-40
2022/04/16 00:37:36;;;;;;;18.73;14.07;;;8.20;99.90;;;;;;5071353;28;20094;-40
2022/04/16 00:40:02;;;;;;;16.77;13.80;;;8.10;99.90;;;;;;5060507;28;20048;-40
2022/04/16 00:42:39;;;;;;;15.57;12.85;;;8.00;99.90;;;;;;5044150;28;20093;-40
2022/04/16 00:45:06;;;;;;;17.30;14.32;;;8.00;99.90;;;;;;5043271;28;20681;-41
2022/04/16 00:47:32;;;;;;;15.05;13.48;;;7.90;99.90;;;;;;5041612;28;20143;-40
2022/04/16 00:49:59;;;;;;;18.67;13.93;;;7.80;99.90;;;;;;5042582;28;20080;-40
2022/04/16 00:52:25;;;;;;;18.63;14.30;;;7.70;99.90;;;;;;5046792;28;20052;-40
2022/04/16 00:54:54;;;;;;;16.42;14.65;;;7.70;99.90;;;;;;5060071;28;20479;-41
2022/04/16 00:57:20;;;;;;;15.50;13.88;;;7.70;99.90;;;;;;5059404;28;20063;-40
2022/04/16 00:59:46;;;;;;;15.25;13.65;;;7.70;99.90;;;;;;5060096;28;20524;-40
2022/04/16 01:02:11;;;;;;;16.23;14.52;;;7.60;99.90;;;;;;5060679;28;20044;-39
2022/04/16 01:04:37;;;;;;;15.23;13.60;;;7.60;99.90;;;;;;5041812;28;20182;-40
2022/04/16 01:07:05;;;;;;;16.10;14.10;;;7.50;99.90;;;;;;5059395;28;20247;-40
2022/04/16 01:09:31;;;;;;;15.93;13.95;;;7.40;99.90;;;;;;5041339;28;20060;-39
2022/04/16 01:11:56;;;;;;;17.80;14.55;;;7.40;99.90;;;;;;5041392;28;20068;-41
2022/04/16 01:14:22;;;;;;;17.08;14.45;;;7.30;99.90;;;;;;5060134;28;20051;-39
2022/04/16 01:16:48;;;;;;;17.13;15.18;;;7.20;99.90;;;;;;5058406;28;20045;-39
2022/04/16 01:19:14;;;;;;;18.23;15.15;;;7.10;99.90;;;;;;5023512;28;20052;-40
2022/04/16 01:21:40;;;;;;;17.90;15.57;;;7.00;99.90;;;;;;5060320;28;20056;-40
2022/04/16 01:24:06;;;;;;;18.23;15.95;;;7.00;99.90;;;;;;5063548;28;20032;-40
2022/04/16 01:26:32;;;;;;;17.67;15.55;;;6.90;99.90;;;;;;5062369;28;20411;-40
2022/04/16 01:28:58;;;;;;;22.15;16.92;;;6.80;99.90;;;;;;5044808;28;20079;-40
2022/04/16 01:31:24;;;;;;;17.90;15.55;;;6.70;99.90;;;;;;5045296;28;20133;-39
2022/04/16 01:33:49;;;;;;;22.20;17.73;;;6.60;99.90;;;;;;5044996;28;20056;-41
2022/04/16 01:36:15;;;;;;;19.05;16.17;;;6.60;99.90;;;;;;5060485;28;20116;-40
2022/04/16 01:38:41;;;;;;;20.02;17.13;;;6.50;99.90;;;;;;5078016;28;20177;-40
2022/04/16 01:41:07;;;;;;;21.75;17.33;;;6.50;99.90;;;;;;5063325;28;20522;-40
2022/04/16 01:43:33;;;;;;;22.30;17.58;;;6.40;99.90;;;;;;5083200;28;20051;-41
2022/04/16 01:45:58;;;;;;;20.95;17.92;;;6.40;99.90;;;;;;5082824;28;20558;-41
2022/04/16 01:48:28;;;;;;;19.92;17.10;;;6.40;99.90;;;;;;5064012;28;20087;-39
2022/04/16 01:50:54;;;;;;;21.63;17.38;;;6.40;99.90;;;;;;5082682;28;20862;-40
2022/04/16 01:53:21;;;;;;;20.02;16.95;;;6.30;99.90;;;;;;5069170;28;20081;-39
2022/04/16 01:55:47;;;;;;;23.42;17.23;;;6.30;99.90;;;;;;5084686;28;20133;-40
2022/04/16 01:58:14;;;;;;;20.52;17.95;;;6.30;99.90;;;;;;5086918;28;20056;-39
2022/04/16 02:00:39;;;;;;;21.23;17.85;;;6.30;99.90;;;;;;5085858;28;20062;-40
2022/04/16 02:03:05;;;;;;;21.92;18.13;;;6.20;99.90;;;;;;5083339;28;20047;-48
2022/04/16 02:05:32;;;;;;;21.75;18.08;;;6.30;99.90;;;;;;5082530;28;20655;-40
2022/04/16 02:07:58;;;;;;;27.63;19.13;;;6.20;99.90;;;;;;5082337;28;20048;-40
2022/04/16 02:10:24;;;;;;;22.33;17.65;;;6.20;99.90;;;;;;5059757;28;20044;-39
2022/04/16 02:12:49;;;;;;;24.63;18.67;;;6.20;99.90;;;;;;5064597;28;20055;-40
2022/04/16 02:15:15;;;;;;;21.70;18.42;;;6.20;99.90;;;;;;5079386;28;20458;-40
2022/04/16 02:17:41;;;;;;;25.55;19.58;;;6.20;99.90;;;;;;5081624;28;20094;-40
2022/04/16 02:20:09;;;;;;;24.05;20.42;;;6.20;99.90;;;;;;5082128;28;20707;-39
2022/04/16 02:22:53;;;;;;;25.50;20.48;;;6.20;99.90;;;;;;5063537;28;20040;-39
2022/04/16 02:25:20;;;;;;;23.65;20.88;;;6.20;99.90;;;;;;5080812;28;20427;-40
2022/04/16 02:27:46;;;;;;;24.85;20.48;;;6.30;99.90;;;;;;5075638;28;20397;-40
2022/04/16 02:30:14;;;;;;;26.90;19.90;;;6.30;99.90;;;;;;5080323;28;20048;-40
2022/04/16 02:32:43;;;;;;;23.85;19.65;;;6.40;99.90;;;;;;5081488;28;20051;-40
2022/04/16 02:35:10;;;;;;;23.92;20.15;;;6.40;99.90;;;;;;5080704;28;20043;-41
2022/04/16 02:37:36;;;;;;;26.67;20.95;;;6.40;99.90;;;;;;5080973;28;20152;-39
2022/04/16 02:40:09;;;;;;;26.00;21.23;;;6.40;99.90;;;;;;5063528;28;20522;-40
2022/04/16 02:42:36;;;;;;;28.33;21.30;;;6.40;99.90;;;;;;5073296;28;20075;-40
2022/04/16 02:47:53;;;;;;;26.50;21.23;;;6.40;99.90;;;;;;5080124;28;20525;-39
2022/04/16 02:50:19;;;;;;;25.23;21.85;;;6.40;99.90;;;;;;5082157;28;20460;-39
2022/04/16 02:52:48;;;;;;;28.83;21.00;;;6.40;99.90;;;;;;5066321;28;20056;-39
2022/04/16 02:55:17;;;;;;;27.42;22.33;;;6.30;99.90;;;;;;5082027;28;20417;-39
2022/04/16 02:57:44;;;;;;;29.67;22.52;;;6.30;99.90;;;;;;5062398;28;20535;-40
2022/04/16 03:00:14;;;;;;;31.75;23.35;;;6.30;99.90;;;;;;5072516;28;20048;-39
2022/04/16 03:02:40;;;;;;;28.45;23.38;;;6.30;99.90;;;;;;5082656;28;20048;-39
2022/04/16 03:05:08;;;;;;;31.50;25.17;;;6.30;99.90;;;;;;5082550;28;20448;-40
2022/04/16 03:07:35;;;;;;;30.83;23.35;;;6.30;99.90;;;;;;5081153;28;20131;-40
2022/04/16 03:10:02;;;;;;;30.15;23.58;;;6.40;99.90;;;;;;5059613;28;20135;-39
2022/04/16 03:12:28;;;;;;;30.70;24.13;;;6.40;99.90;;;;;;5084745;28;20059;-40
2022/04/16 03:17:39;;;;;;;29.15;23.55;;;6.50;99.90;;;;;;5078950;28;20113;-39
2022/04/16 03:20:07;;;;;;;30.33;23.00;;;6.40;99.90;;;;;;5081151;28;20089;-41
2022/04/16 03:22:34;;;;;;;29.33;24.33;;;6.50;99.90;;;;;;5080757;28;20594;-40
2022/04/16 03:25:03;;;;;;;30.10;23.25;;;6.60;99.90;;;;;;5061829;28;20131;-39
2022/04/16 03:27:29;;;;;;;31.92;23.30;;;6.60;99.90;;;;;;5062044;28;20052;-40
2022/04/16 03:29:55;;;;;;;29.95;22.75;;;6.60;99.90;;;;;;5081341;28;20055;-40
2022/04/16 03:32:21;;;;;;;28.80;23.73;;;6.70;99.90;;;;;;5081058;28;20040;-40
2022/04/16 03:34:46;;;;;;;27.58;23.25;;;6.70;99.90;;;;;;5074873;28;20047;-39
2022/04/16 03:37:13;;;;;;;31.02;23.45;;;6.70;99.90;;;;;;5079788;28;20564;-40
2022/04/16 03:39:38;;;;;;;27.08;22.40;;;6.80;99.90;;;;;;5079925;28;20043;-40
2022/04/16 03:42:04;;;;;;;25.55;22.58;;;6.70;99.90;;;;;;5081446;28;20050;-39
2022/04/16 03:44:30;;;;;;;27.67;21.90;;;6.70;99.90;;;;;;5081217;28;20059;-40
2022/04/16 03:46:56;;;;;;;31.23;22.38;;;6.70;99.90;;;;;;5055368;28;20582;-40
2022/04/16 03:49:23;;;;;;;27.15;22.38;;;6.50;99.90;;;;;;5059209;28;20075;-41
2022/04/16 03:51:48;;;;;;;28.13;23.02;;;6.50;99.90;;;;;;5076916;28;20083;-40
2022/04/16 04:00:05;;;;;;;27.52;23.30;;;6.40;99.90;;;;;;5077494;28;20567;-39
2022/04/16 04:02:38;;;;;;;33.67;24.58;;;6.40;99.90;;;;;;5077062;28;20047;-43
2022/04/16 04:05:06;;;;;;;31.25;24.67;;;6.40;99.90;;;;;;5033938;28;20071;-41
2022/04/16 04:07:33;;;;;;;32.10;24.92;;;6.40;99.90;;;;;;5061485;28;20058;-39
2022/04/16 04:09:58;;;;;;;32.40;25.38;;;6.40;99.90;;;;;;5075203;28;20051;-39
2022/04/16 04:12:24;;;;;;;32.50;25.63;;;6.40;99.90;;;;;;5078249;28;20040;-39
2022/04/16 04:14:50;;;;;;;32.20;25.77;;;6.40;99.90;;;;;;5062695;28;20120;-40
2022/04/16 04:17:16;;;;;;;30.25;24.73;;;6.50;99.90;;;;;;5079392;28;20949;-40
2022/04/16 04:19:45;;;;;;;33.72;26.58;;;6.50;99.90;;;;;;5079980;28;20063;-40
2022/04/16 04:22:13;;;;;;;36.80;27.02;;;6.60;99.90;;;;;;5081275;28;20130;-41
2022/04/16 04:24:39;;;;;;;33.38;27.67;;;6.60;99.90;;;;;;5084551;28;20051;-39
2022/04/16 04:27:06;;;;;;;33.08;27.95;;;6.60;99.90;;;;;;5044529;28;20044;-39
2022/04/16 04:29:33;;;;;;;37.45;27.35;;;6.60;99.90;;;;;;5062794;28;20455;-39
2022/04/16 04:31:59;;;;;;;36.92;28.42;;;6.70;99.90;;;;;;5080380;28;20105;-40
2022/04/16 04:34:25;;;;;;;32.47;26.52;;;6.70;99.90;;;;;;5062471;28;20053;-39
2022/04/16 04:36:51;;;;;;;35.90;27.67;;;6.80;99.90;;;;;;5060478;28;20437;-40
2022/04/16 04:39:16;;;;;;;32.83;28.40;;;6.80;99.90;;;;;;5061682;28;20263;-40
2022/04/16 04:41:43;;;;;;;33.70;27.88;;;6.80;99.90;;;;;;5079966;28;20044;-41
2022/04/16 04:44:13;;;;;;;34.78;28.25;;;6.80;99.90;;;;;;5079529;28;20087;-39
2022/04/16 04:46:40;;;;;;;34.40;28.17;;;6.90;99.90;;;;;;5065383;28;20112;-40
2022/04/16 04:49:11;;;;;;;31.40;26.58;;;6.90;99.90;;;;;;5079949;28;20071;-39
2022/04/16 04:51:41;;;;;;;34.00;28.27;;;6.90;99.90;;;;;;5076886;28;20052;-40
2022/04/16 04:54:07;;;;;;;33.33;26.45;;;6.90;99.90;;;;;;5048385;28;20048;-41
2022/04/16 04:56:34;;;;;;;33.13;27.08;;;6.90;99.90;;;;;;5079579;28;20103;-40
2022/04/16 04:58:59;;;;;;;34.55;27.02;;;6.90;99.90;;;;;;5048402;28;20497;-40
2022/04/16 05:01:25;;;;;;;37.15;27.50;;;6.90;99.90;;;;;;5080114;28;20044;-39
2022/04/16 05:03:51;;;;;;;34.72;27.27;;;6.90;99.90;;;;;;5079194;28;20109;-41
2022/04/16 05:06:17;;;;;;;38.40;28.92;;;6.90;99.90;;;;;;5078182;28;20529;-39
2022/04/16 05:08:43;;;;;;;34.72;28.25;;;7.00;99.90;;;;;;5082948;28;20381;-39
2022/04/16 05:11:10;;;;;;;34.15;27.70;;;7.00;99.90;;;;;;5064500;28;20485;-40
2022/04/16 05:13:35;;;;;;;33.80;28.50;;;7.00;99.90;;;;;;5073330;28;20597;-41
2022/04/16 05:16:01;;;;;;;35.47;29.23;;;7.00;99.90;;;;;;5082010;28;20052;-39
2022/04/16 05:18:27;;;;;;;37.70;30.02;;;7.00;99.90;;;;;;5084289;28;20048;-39
2022/04/16 05:20:52;;;;;;;37.10;29.00;;;7.10;99.90;;;;;;5065653;28;20052;-39
2022/04/16 05:23:18;;;;;;;37.08;29.77;;;7.10;99.90;;;;;;5069996;28;20535;-39
2022/04/16 05:25:44;;;;;;;38.55;29.95;;;7.20;99.90;;;;;;5082427;28;20615;-39
2022/04/16 05:28:10;;;;;;;35.67;29.33;;;7.20;99.90;;;;;;5083207;28;20051;-40
2022/04/16 05:30:44;;;;;;;36.35;31.10;;;7.30;99.90;;;;;;5064534;28;20095;-39
2022/04/16 05:34:18;;;;;;;37.17;29.40;;;7.30;99.90;;;;;;5064899;28;20118;-39
2022/04/16 05:36:03;;;;;;;38.30;29.45;;;7.30;99.90;;;;;;5085260;28;20059;-39
2022/04/16 05:38:31;;;;;;;37.15;30.20;;;7.40;99.90;;;;;;5083427;28;20514;-39
2022/04/16 05:40:56;;;;;;;41.53;31.02;;;7.40;99.90;;;;;;5083209;28;20109;-45
2022/04/16 05:43:22;;;;;;;39.25;30.67;;;7.50;99.90;;;;;;5061027;28;20147;-40
2022/04/16 05:45:48;;;;;;;37.13;29.23;;;7.50;99.90;;;;;;5064567;28;20078;-39
2022/04/16 05:48:14;;;;;;;35.90;28.83;;;7.50;99.90;;;;;;5064642;28;20498;-40
2022/04/16 05:50:40;;;;;;;38.70;28.77;;;7.60;99.90;;;;;;5065211;28;20052;-40
2022/04/16 05:53:08;;;;;;;33.85;28.00;;;7.70;99.90;;;;;;5079867;28;20076;-39
2022/04/16 05:55:34;;;;;;;37.88;28.80;;;7.70;99.90;;;;;;5065166;28;20055;-41
2022/04/16 05:58:01;;;;;;;32.25;25.75;;;7.70;99.90;;;;;;5062820;28;20505;-39
2022/04/16 06:00:27;;;;;;;31.98;26.60;;;7.80;99.90;;;;;;5064006;28;20532;-40
2022/04/16 06:02:54;;;;;;;30.00;24.40;;;7.80;99.90;;;;;;5064293;28;20051;-39
2022/04/16 06:05:21;;;;;;;35.25;25.42;;;7.90;99.90;;;;;;5082971;28;20080;-39
2022/04/16 06:07:47;;;;;;;29.23;24.15;;;7.80;99.90;;;;;;5081296;28;20105;-39
2022/04/16 06:10:12;;;;;;;26.75;23.08;;;7.80;99.90;;;;;;5063168;28;20056;-40
2022/04/16 06:12:38;;;;;;;27.85;23.50;;;7.80;99.90;;;;;;5064946;28;20051;-40
2022/04/16 06:15:04;;;;;;;30.25;22.00;;;7.80;99.90;;;;;;5082989;28;20517;-41
2022/04/16 06:17:30;;;;;;;36.42;21.63;;;7.80;99.90;;;;;;5063784;28;20539;-40
2022/04/16 06:19:56;;;;;;;26.75;20.40;;;7.80;99.90;;;;;;5059450;28;20598;-40
2022/04/16 06:22:22;;;;;;;27.45;20.40;;;7.80;99.90;;;;;;5082649;28;20055;-40
2022/04/16 06:24:48;;;;;;;25.88;20.65;;;7.80;99.90;;;;;;5082213;28;20074;-39
2022/04/16 06:27:14;;;;;;;23.25;19.25;;;7.80;99.90;;;;;;5081956;28;20550;-39
2022/04/16 06:29:39;;;;;;;25.42;20.50;;;7.90;99.90;;;;;;5081847;28;20486;-40
2022/04/16 06:32:06;;;;;;;25.42;21.48;;;7.90;99.90;;;;;;5081627;28;20062;-40
2022/04/16 06:34:31;;;;;;;27.67;19.52;;;7.90;99.90;;;;;;5089397;28;20059;-40
2022/04/16 06:36:57;;;;;;;25.52;19.77;;;7.90;99.90;;;;;;5078875;28;20048;-40
2022/04/16 06:39:23;;;;;;;23.92;18.75;;;8.00;99.90;;;;;;5062322;28;20052;-43
2022/04/16 06:41:49;;;;;;;24.55;18.85;;;8.00;99.90;;;;;;5062041;28;20044;-39
2022/04/16 06:44:15;;;;;;;22.10;19.35;;;8.10;99.90;;;;;;5062763;28;20047;-40
2022/04/16 06:46:41;;;;;;;24.88;18.90;;;8.10;99.90;;;;;;5063122;28;20449;-40
2022/04/16 06:49:07;;;;;;;22.25;19.15;;;8.30;99.90;;;;;;5065621;28;20048;-40
2022/04/16 06:51:32;;;;;;;19.38;16.52;;;8.40;99.90;;;;;;5045193;28;20497;-40
2022/04/16 06:53:58;;;;;;;21.85;17.67;;;8.50;99.90;;;;;;5049707;28;20566;-48
2022/04/16 06:56:24;;;;;;;20.13;17.60;;;8.80;99.90;;;;;;5061763;28;20495;-40
2022/04/16 06:58:50;;;;;;;20.63;17.17;;;9.10;99.90;;;;;;5062148;28;20055;-39
2022/04/16 07:01:16;;;;;;;21.25;15.43;;;9.60;99.90;;;;;;5061457;28;20045;-40
2022/04/16 07:03:42;;;;;;;18.65;16.45;;;10.80;99.90;;;;;;5042535;28;20558;-40
2022/04/16 07:06:07;;;;;;;17.63;15.70;;;12.10;99.90;;;;;;5042798;28;20061;-40
2022/04/16 07:08:33;;;;;;;17.60;14.38;;;13.20;99.90;;;;;;5079797;28;20495;-43
2022/04/16 07:10:59;;;;;;;17.90;14.40;;;14.20;99.90;;;;;;5081736;28;20048;-40
2022/04/16 07:13:24;;;;;;;18.88;14.63;;;14.10;99.90;;;;;;5062477;28;20393;-40
2022/04/16 07:15:50;;;;;;;17.27;14.13;;;14.00;99.90;;;;;;5080453;28;20051;-42
2022/04/16 07:18:16;;;;;;;17.50;15.20;;;13.80;99.90;;;;;;5081419;28;20352;-40
2022/04/16 07:20:45;;;;;;;17.45;14.13;;;13.50;99.90;;;;;;5062269;28;20044;-40
2022/04/16 07:23:10;;;;;;;16.08;13.20;;;13.40;99.90;;;;;;5080429;28;20083;-40
2022/04/16 07:25:36;;;;;;;14.75;12.88;;;13.20;99.90;;;;;;5079504;28;20407;-40
2022/04/16 07:28:02;;;;;;;17.00;14.10;;;12.80;99.90;;;;;;5081821;28;20048;-40
2022/04/16 07:30:28;;;;;;;18.45;14.18;;;12.80;99.90;;;;;;5062979;28;20056;-40
2022/04/16 07:32:54;;;;;;;16.52;13.48;;;12.80;99.90;;;;;;5079899;28;20094;-41
2022/04/16 07:35:19;;;;;;;17.75;12.52;;;12.70;99.90;;;;;;5080797;28;20052;-42
2022/04/16 07:37:48;;;;;;;18.15;14.27;;;12.70;99.90;;;;;;5080794;28;20577;-40
2022/04/16 07:40:14;;;;;;;17.55;14.05;;;12.60;99.90;;;;;;5063064;28;20450;-40
2022/04/16 07:42:40;;;;;;;16.35;13.93;;;12.60;99.90;;;;;;5063439;28;20047;-42
2022/04/16 07:45:07;;;;;;;16.48;13.43;;;12.60;99.90;;;;;;5077859;28;20501;-41
2022/04/16 07:47:33;;;;;;;15.95;13.95;;;12.60;99.90;;;;;;5078963;28;20036;-40
2022/04/16 07:49:58;;;;;;;16.77;13.23;;;12.50;99.90;;;;;;5079361;28;20077;-41
2022/04/16 07:52:25;;;;;;;15.25;12.25;;;12.50;99.90;;;;;;5060050;28;20470;-41
2022/04/16 07:54:52;;;;;;;16.50;13.77;;;12.30;99.90;;;;;;5077308;28;20051;-41
2022/04/16 07:57:18;;;;;;;15.80;13.05;;;12.40;99.90;;;;;;5062769;28;20545;-41
2022/04/16 07:59:43;;;;;;;16.10;12.73;;;12.40;99.90;;;;;;5062451;28;20063;-41
2022/04/16 08:02:09;;;;;;;14.88;12.30;;;12.60;99.90;;;;;;5082265;28;20585;-43
2022/04/16 08:04:35;;;;;;;15.70;12.48;;;12.80;99.90;;;;;;5065779;28;20466;-40
2022/04/16 08:07:00;;;;;;;14.98;12.85;;;12.90;99.90;;;;;;5078670;28;20040;-43
2022/04/16 08:09:26;;;;;;;14.52;12.55;;;12.90;99.90;;;;;;5080618;28;20047;-42
2022/04/16 08:11:52;;;;;;;16.33;12.95;;;13.00;99.90;;;;;;5080434;28;20043;-41
2022/04/16 08:14:18;;;;;;;14.60;12.15;;;13.00;99.90;;;;;;5081449;28;20048;-40
2022/04/16 08:16:43;;;;;;;15.10;13.48;;;13.00;99.90;;;;;;5079600;28;20596;-42
2022/04/16 08:19:09;;;;;;;15.90;13.45;;;12.90;99.90;;;;;;5080958;28;20470;-41
2022/04/16 08:21:35;;;;;;;15.95;13.13;;;12.80;99.90;;;;;;5080370;28;20048;-42
2022/04/16 08:24:12;;;;;;;16.35;13.40;;;12.70;99.90;;;;;;5062517;28;20052;-43
2022/04/16 08:26:39;;;;;;;14.70;12.05;;;12.70;99.90;;;;;;5080053;28;20074;-43
2022/04/16 08:29:05;;;;;;;18.98;13.63;;;12.70;99.90;;;;;;5061832;28;20048;-41
2022/04/16 08:31:34;;;;;;;15.75;12.27;;;12.60;99.90;;;;;;5061921;28;20055;-41
2022/04/16 08:34:00;;;;;;;14.10;12.60;;;12.70;99.90;;;;;;5062329;28;20052;-41
2022/04/16 08:36:26;;;;;;;15.45;12.48;;;12.70;99.90;;;;;;5060800;28;20367;-41
2022/04/16 08:38:52;;;;;;;14.73;11.35;;;12.70;99.90;;;;;;5079890;28;20044;-41
2022/04/16 08:41:18;;;;;;;14.15;12.32;;;12.90;99.90;;;;;;5080656;28;20177;-43
2022/04/16 08:43:45;;;;;;;13.73;11.32;;;13.00;99.90;;;;;;5079817;28;20566;-40
2022/04/16 08:46:11;;;;;;;14.77;11.52;;;13.10;99.90;;;;;;5079823;28;20121;-41
2022/04/16 08:48:37;;;;;;;15.32;12.48;;;12.80;99.90;;;;;;5079969;28;20565;-41
2022/04/16 08:51:03;;;;;;;14.75;11.68;;;12.70;99.90;;;;;;5080648;28;20048;-41
2022/04/16 08:53:29;;;;;;;16.50;12.45;;;12.70;99.90;;;;;;5079933;28;20046;-41
2022/04/16 08:55:55;;;;;;;13.48;11.13;;;12.80;99.90;;;;;;5079667;28;20539;-40
2022/04/16 08:58:20;;;;;;;13.18;11.35;;;12.90;99.90;;;;;;5080719;28;20048;-42
2022/04/16 09:00:47;;;;;;;12.63;10.98;;;13.00;99.90;;;;;;5061919;28;20443;-41
2022/04/16 09:03:13;;;;;;;11.63;9.98;;;13.10;99.90;;;;;;5061492;28;20060;-42
2022/04/16 09:05:39;;;;;;;14.23;11.88;;;13.30;99.90;;;;;;5060673;28;20044;-41
2022/04/16 09:08:05;;;;;;;13.13;11.68;;;13.30;99.90;;;;;;5057814;28;20103;-41
2022/04/16 09:10:36;;;;;;;12.13;10.82;;;13.30;99.90;;;;;;5057518;28;20495;-41
2022/04/16 09:13:04;;;;;;;14.57;11.55;;;13.10;99.90;;;;;;5060520;28;20113;-41
2022/04/16 09:15:31;;;;;;;13.55;10.73;;;13.00;99.90;;;;;;5060050;28;20795;-41
2022/04/16 09:18:04;;;;;;;13.00;10.57;;;13.00;99.90;;;;;;5053036;28;20677;-41
2022/04/16 09:20:38;;;;;;;13.75;11.50;;;13.10;99.90;;;;;;5060531;28;20056;-42
2022/04/16 09:23:18;;;;;;;12.07;10.02;;;13.20;99.90;;;;;;5053943;28;20132;-42
2022/04/16 09:25:45;;;;;;;12.48;10.82;;;13.30;99.90;;;;;;5055627;28;20045;-42
2022/04/16 09:28:14;;;;;;;13.65;12.25;;;13.10;99.90;;;;;;5058603;28;20530;-43
2022/04/16 09:30:51;;;;;;;12.75;11.35;;;13.10;99.90;;;;;;5059078;28;20048;-42
2022/04/16 09:33:17;;;;;;;12.35;9.85;;;13.30;99.90;;;;;;5058423;28;20049;-42
2022/04/16 09:35:43;;;;;;;11.02;9.07;;;13.20;99.90;;;;;;5057317;28;20045;-43
2022/04/16 09:38:12;;;;;;;11.65;9.02;;;13.50;99.90;;;;;;5060176;28;20098;-41
2022/04/16 09:40:44;;;;;;;9.23;7.93;;;13.60;99.90;;;;;;5058520;28;20051;-42
2022/04/16 09:43:10;;;;;;;8.50;6.63;;;13.60;99.90;;;;;;5061205;28;20589;-43
2022/04/16 09:45:44;;;;;;;7.80;6.57;;;13.70;99.90;;;;;;5063134;28;20052;-41
2022/04/16 09:48:11;;;;;;;8.68;6.93;;;13.80;99.90;;;;;;5063915;28;20139;-42
2022/04/16 09:50:38;;;;;;;8.32;6.85;;;13.70;99.90;;;;;;5063720;28;20084;-41
2022/04/16 09:53:06;;;;;;;9.85;7.03;;;14.00;99.90;;;;;;5060311;28;20428;-43
2022/04/16 09:55:36;;;;;;;8.13;6.15;;;14.00;99.90;;;;;;5064888;28;20114;-41
2022/04/16 09:58:04;;;;;;;7.70;6.10;;;14.00;99.90;;;;;;5063344;28;20135;-41
2022/04/16 10:00:32;;;;;;;7.47;5.72;;;14.20;99.90;;;;;;5061791;28;20052;-41
2022/04/16 10:02:59;;;;;;;7.95;6.28;;;14.20;99.90;;;;;;5044546;28;20045;-41
2022/04/16 10:05:26;;;;;;;10.98;7.07;;;14.30;99.90;;;;;;5043917;28;20049;-41
2022/04/16 10:07:52;;;;;;;7.95;4.45;;;14.30;99.90;;;;;;5057192;28;20547;-41
2022/04/16 10:10:25;;;;;;;6.15;3.30;;;14.30;99.90;;;;;;5063429;28;20570;-43
2022/04/16 10:12:59;;;;;;;22.60;5.00;;;14.20;99.90;;;;;;5070860;28;20177;-42
2022/04/16 10:15:30;;;;;;;4.53;3.67;;;14.20;99.90;;;;;;5082617;28;20115;-41
2022/04/16 10:17:58;;;;;;;4.75;3.38;;;14.10;99.90;;;;;;5074518;28;20047;-41
2022/04/16 10:20:25;;;;;;;4.13;3.63;;;14.30;99.90;;;;;;5082849;28;20048;-42
2022/04/16 10:22:58;;;;;;;4.45;3.58;;;14.40;99.90;;;;;;5064021;28;20520;-41
2022/04/16 10:25:50;;;;;;;3.75;3.08;;;14.50;99.90;;;;;;5081793;28;20036;-44
2022/04/16 10:28:23;;;;;;;7.13;3.35;;;14.60;99.90;;;;;;5077316;28;20699;-44
2022/04/16 10:30:51;;;;;;;6.10;3.03;;;14.60;99.90;;;;;;5083037;28;20127;-44
2022/04/16 10:33:28;;;;;;;2.92;2.10;;;14.70;99.90;;;;;;5082708;28;20059;-42
2022/04/16 10:35:56;;;;;;;3.72;2.67;;;14.70;98.80;;;;;;5066515;28;20059;-42
2022/04/16 10:38:26;;;;;;;4.25;2.80;;;14.60;97.80;;;;;;5084928;28;20059;-43
2022/04/16 10:41:02;;;;;;;3.38;2.22;;;14.70;98.10;;;;;;5082593;28;20052;-44
2022/04/16 10:43:34;;;;;;;3.40;2.25;;;14.70;97.40;;;;;;5049911;28;20068;-43
2022/04/16 10:46:02;;;;;;;4.60;2.50;;;14.60;97.70;;;;;;5064135;28;20036;-44
2022/04/16 10:48:32;;;;;;;3.30;2.45;;;14.50;97.10;;;;;;5082335;28;20054;-42
2022/04/16 10:50:58;;;;;;;3.70;2.67;;;14.40;97.70;;;;;;5063812;28;20135;-42
2022/04/16 10:53:35;;;;;;;2.47;2.25;;;14.40;97.40;;;;;;5081530;28;20105;-42
2022/04/16 10:56:18;;;;;;;4.03;2.10;;;14.60;98.20;;;;;;5080436;28;20055;-43
2022/04/16 10:58:47;;;;;;;2.30;1.90;;;14.60;96.60;;;;;;5080924;28;20496;-42
2022/04/16 11:01:23;;;;;;;4.78;2.55;;;14.60;97.90;;;;;;5063116;28;20048;-43
2022/04/16 11:03:50;;;;;;;2.92;2.20;;;14.60;96.30;;;;;;5081564;28;20056;-45
2022/04/16 11:06:17;;;;;;;3.53;2.30;;;14.60;95.90;;;;;;5080712;28;20051;-44
2022/04/16 11:08:47;;;;;;;3.15;2.10;;;14.70;97.00;;;;;;5057635;28;20664;-43
2022/04/16 11:11:14;;;;;;;3.17;1.70;;;14.90;97.00;;;;;;5060130;28;20319;-43
2022/04/16 11:13:42;;;;;;;2.75;1.50;;;15.00;96.50;;;;;;5060946;28;20410;-45
2022/04/16 11:16:09;;;;;;;2.53;1.70;;;15.00;96.70;;;;;;5060426;28;20574;-44
2022/04/16 11:18:47;;;;;;;2.72;1.60;;;15.20;96.50;;;;;;5060737;28;20159;-43
2022/04/16 11:21:34;;;;;;;3.65;1.83;;;15.20;95.70;;;;;;5059195;28;20639;-44
2022/04/16 11:24:05;;;;;;;3.45;2.38;;;15.20;94.50;;;;;;5056484;28;20056;-43
2022/04/16 11:34:57;;;;;;;;;;;15.30;95.60;;;;;;5061611;28;20075;-44
2022/04/16 11:37:29;;;;;;;2.03;1.20;;;15.30;93.80;;;;;;5060473;28;19977;-43
2022/04/16 11:40:03;;;;;;;3.83;2.10;;;15.30;94.60;;;;;;5059024;28;20755;-44
2022/04/16 11:42:29;;;;;;;1.90;1.20;;;15.30;95.80;;;;;;5060288;28;20853;-43
2022/04/16 11:44:56;;;;;;;2.63;1.55;;;15.30;92.80;;;;;;5058443;28;20159;-43
2022/04/16 11:47:24;;;;;;;2.30;1.50;;;15.30;93.80;;;;;;5060434;28;20534;-42
2022/04/16 11:49:53;;;;;;;3.25;1.70;;;15.30;93.40;;;;;;5060536;28;20462;-44
2022/04/16 11:52:30;;;;;;;3.95;2.00;;;15.30;94.70;;;;;;5057579;28;20040;-43
2022/04/16 11:55:00;;;;;;;5.65;2.80;;;15.40;93.50;;;;;;5060825;28;20117;-43
2022/04/16 11:57:26;;;;;;;2.97;2.05;;;15.40;93.40;;;;;;5063264;28;20048;-43
2022/04/16 12:00:07;;;;;;;2.72;2.22;;;15.30;92.10;;;;;;5062658;28;20048;-44
2022/04/16 12:02:37;;;;;;;5.68;2.20;;;15.20;91.20;;;;;;5057921;28;20054;-45
2022/04/16 12:05:11;;;;;;;2.53;1.67;;;15.10;93.10;;;;;;5059266;28;20047;-42
2022/04/16 12:07:39;;;;;;;2.17;1.67;;;15.20;92.10;;;;;;5059933;28;20122;-42
2022/04/16 12:10:06;;;;;;;2.63;1.90;;;15.20;92.30;;;;;;5042757;28;20136;-45
2022/04/16 12:12:47;;;;;;;2.65;1.50;;;15.40;91.40;;;;;;5040832;28;20114;-43
2022/04/16 12:15:28;;;;;;;1.90;1.50;;;15.30;87.60;;;;;;5039156;28;20045;-45
2022/04/16 12:18:07;;;;;;;7.25;2.00;;;15.20;82.70;;;;;;5047163;28;20048;-42
2022/04/16 12:20:33;;;;;;;2.38;1.30;;;15.10;80.90;;;;;;5049874;28;20052;-43
2022/04/16 12:23:05;;;;;;;3.22;1.38;;;15.00;83.80;;;;;;5069037;28;20064;-43
2022/04/16 12:25:31;;;;;;;3.78;1.38;;;15.00;79.30;;;;;;5069256;28;20515;-42
2022/04/16 12:28:00;;;;;;;3.25;1.42;;;15.10;80.30;;;;;;5069899;28;20364;-43
2022/04/16 12:30:33;;;;;;;2.40;1.42;;;15.00;79.40;;;;;;5069174;28;20576;-42
2022/04/16 12:33:00;;;;;;;;;;;15.00;78.50;;;;;;5050281;28;20055;-45
2022/04/16 12:35:27;;;;;;;2.25;1.27;;;14.90;79.40;;;;;;5070404;28;20338;-43
2022/04/16 12:37:54;;;;;;;1.75;1.20;;;15.10;82.70;;;;;;5068620;28;20052;-43
2022/04/16 12:40:21;;;;;;;1.85;1.17;;;15.00;81.50;;;;;;5059601;28;20114;-44
2022/04/16 12:42:48;;;;;;;1.50;1.10;;;15.10;83.90;;;;;;5059358;28;20454;-43
2022/04/16 12:45:13;;;;;;;1.92;1.02;;;15.20;78.60;;;;;;5068005;28;20087;-42
2022/04/16 12:47:39;;;;;;;1.48;1.00;;;15.20;73.20;;;;;;5059950;28;20592;-44
2022/04/16 12:50:05;;;;;;;1.48;1.00;;;15.10;72.30;;;;;;5059073;28;20071;-44
2022/04/16 12:52:31;;;;;;;3.72;1.52;;;15.00;71.10;;;;;;5059409;28;20048;-42
2022/04/16 12:54:57;;;;;;;1.25;0.88;;;15.00;71.10;;;;;;5058983;28;20063;-42
2022/04/16 12:57:23;;;;;;;1.83;1.25;;;15.10;69.40;;;;;;5059785;28;20438;-42
2022/04/16 12:59:48;;;;;;;4.05;1.42;;;14.90;68.70;;;;;;5060244;28;20541;-45